sensor_id;sensor_type;location;lat;lon;timestamp;temperature;humidity
13589;DHT22;6865;52.552;13.434;2023-02-08T00:00:58;-2.10;99.90
13589;DHT22;6865;52.552;13.434;2023-02-08T00:03:25;-2.00;99.90
13589;DHT22;6865;52.552;13.434;2023-02-08T00:05:54;-2.00;99.90
13589;DHT22;6865;52.552;13.434;2023-02-08T00:08:20;-1.80;99.90
13589;DHT22;6865;52.552;13.434;2023-02-08T00:10:48;-2.00;99.90
13589;DHT22;6865;52.552;13.434;2023-02-08T00:13:15;-2.00;99.90
13589;DHT22;6865;52.552;13.434;2023-02-08T00:15:43;-2.00;99.90
13589;DHT22;6865;52.552;13.434;2023-02-08T00:18:10;-2.00;99.90
13589;DHT22;6865;52.552;13.434;2023-02-08T00:20:38;-2.00;99.90
13589;DHT22;6865;52.552;13.434;2023-02-08T00:23:06;-2.10;99.90
13589;DHT22;6865;52.552;13.434;2023-02-08T00:25:33;-2.10;99.90
13589;DHT22;6865;52.552;13.434;2023-02-08T00:27:59;-2.10;99.90
13589;DHT22;6865;52.552;13.434;2023-02-08T00:30:29;-2.50;99.90
13589;DHT22;6865;52.552;13.434;2023-02-08T00:32:56;-2.10;99.90
13589;DHT22;6865;52.552;13.434;2023-02-08T00:35:22;-1.90;99.90
13589;DHT22;6865;52.552;13.434;2023-02-08T00:37:49;-2.00;99.90
13589;DHT22;6865;52.552;13.434;2023-02-08T00:40:15;-2.10;99.90
13589;DHT22;6865;52.552;13.434;2023-02-08T00:42:42;-2.10;99.90
13589;DHT22;6865;52.552;13.434;2023-02-08T00:45:09;-2.80;99.90
13589;DHT22;6865;52.552;13.434;2023-02-08T00:47:36;-2.10;99.90
13589;DHT22;6865;52.552;13.434;2023-02-08T00:50:03;-2.10;99.90
13589;DHT22;6865;52.552;13.434;2023-02-08T00:52:30;-2.10;99.90
13589;DHT22;6865;52.552;13.434;2023-02-08T00:54:57;-2.10;99.90
13589;DHT22;6865;52.552;13.434;2023-02-08T00:57:24;-2.10;99.90
13589;DHT22;6865;52.552;13.434;2023-02-08T00:59:51;-2.10;99.90
13589;DHT22;6865;52.552;13.434;2023-02-08T01:02:17;-2.10;99.90
13589;DHT22;6865;52.552;13.434;2023-02-08T01:04:44;-2.50;99.90
13589;DHT22;6865;52.552;13.434;2023-02-08T01:07:11;-2.10;99.90
13589;DHT22;6865;52.552;13.434;2023-02-08T01:09:37;-2.20;99.90
13589;DHT22;6865;52.552;13.434;2023-02-08T01:12:04;-2.30;99.90
13589;DHT22;6865;52.552;13.434;2023-02-08T01:14:31;-2.30;99.90
13589;DHT22;6865;52.552;13.434;2023-02-08T01:16:57;-2.20;99.90
13589;DHT22;6865;52.552;13.434;2023-02-08T01:19:24;-2.20;99.90
13589;DHT22;6865;52.552;13.434;2023-02-08T01:21:50;-2.20;99.90
13589;DHT22;6865;52.552;13.434;2023-02-08T01:24:17;-2.20;99.90
13589;DHT22;6865;52.552;13.434;2023-02-08T01:26:44;-2.30;99.90
13589;DHT22;6865;52.552;13.434;2023-02-08T01:29:10;-2.40;99.90
13589;DHT22;6865;52.552;13.434;2023-02-08T01:31:39;-2.50;99.90
13589;DHT22;6865;52.552;13.434;2023-02-08T01:34:06;-2.50;99.90
13589;DHT22;6865;52.552;13.434;2023-02-08T01:36:34;-2.50;99.90
13589;DHT22;6865;52.552;13.434;2023-02-08T01:39:02;-2.40;99.90
13589;DHT22;6865;52.552;13.434;2023-02-08T01:41:32;-2.40;99.90
13589;DHT22;6865;52.552;13.434;2023-02-08T01:44:02;-2.30;99.90
13589;DHT22;6865;52.552;13.434;2023-02-08T01:46:31;-2.20;99.90
13589;DHT22;6865;52.552;13.434;2023-02-08T01:49:04;-2.20;99.90
13589;DHT22;6865;52.552;13.434;2023-02-08T01:51:38;-2.20;99.90
13589;DHT22;6865;52.552;13.434;2023-02-08T01:54:08;-2.20;99.90
13589;DHT22;6865;52.552;13.434;2023-02-08T01:56:39;-2.20;99.90
13589;DHT22;6865;52.552;13.434;2023-02-08T01:59:14;-2.20;99.90
13589;DHT22;6865;52.552;13.434;2023-02-08T02:01:42;-2.20;99.90
13589;DHT22;6865;52.552;13.434;2023-02-08T02:04:11;-2.20;99.90
13589;DHT22;6865;52.552;13.434;2023-02-08T02:06:44;-2.30;99.90
13589;DHT22;6865;52.552;13.434;2023-02-08T02:09:37;-2.30;99.90
13589;DHT22;6865;52.552;13.434;2023-02-08T02:12:07;-2.30;99.90
13589;DHT22;6865;52.552;13.434;2023-02-08T02:14:35;-2.40;99.90
13589;DHT22;6865;52.552;13.434;2023-02-08T02:17:02;-2.40;99.90
13589;DHT22;6865;52.552;13.434;2023-02-08T02:20:04;-2.50;99.90
13589;DHT22;6865;52.552;13.434;2023-02-08T02:33:51;-2.50;99.90
13589;DHT22;6865;52.552;13.434;2023-02-08T02:39:19;-2.50;99.90
13589;DHT22;6865;52.552;13.434;2023-02-08T02:42:16;-2.50;99.90
13589;DHT22;6865;52.552;13.434;2023-02-08T02:45:30;-2.50;99.90
13589;DHT22;6865;52.552;13.434;2023-02-08T02:51:09;-2.50;99.90
13589;DHT22;6865;52.552;13.434;2023-02-08T02:53:56;-2.40;99.90
13589;DHT22;6865;52.552;13.434;2023-02-08T02:56:28;-2.40;99.90
13589;DHT22;6865;52.552;13.434;2023-02-08T02:59:01;-2.40;99.90
13589;DHT22;6865;52.552;13.434;2023-02-08T03:01:29;-3.10;99.90
13589;DHT22;6865;52.552;13.434;2023-02-08T03:03:56;-2.40;99.90
13589;DHT22;6865;52.552;13.434;2023-02-08T03:06:52;-2.50;99.90
13589;DHT22;6865;52.552;13.434;2023-02-08T03:20:35;-2.50;99.90
13589;DHT22;6865;52.552;13.434;2023-02-08T03:23:29;-2.50;99.90
13589;DHT22;6865;52.552;13.434;2023-02-08T03:26:10;-2.50;99.90
13589;DHT22;6865;52.552;13.434;2023-02-08T03:31:59;-2.60;99.90
13589;DHT22;6865;52.552;13.434;2023-02-08T03:34:55;-2.70;99.90
13589;DHT22;6865;52.552;13.434;2023-02-08T03:37:31;-2.70;99.90
13589;DHT22;6865;52.552;13.434;2023-02-08T03:40:10;-2.60;99.90
13589;DHT22;6865;52.552;13.434;2023-02-08T03:42:40;-2.60;99.90
13589;DHT22;6865;52.552;13.434;2023-02-08T03:45:15;-2.70;99.90
13589;DHT22;6865;52.552;13.434;2023-02-08T03:47:45;-2.70;99.90
13589;DHT22;6865;52.552;13.434;2023-02-08T03:50:14;-2.70;99.90
13589;DHT22;6865;52.552;13.434;2023-02-08T03:52:45;-2.70;99.90
13589;DHT22;6865;52.552;13.434;2023-02-08T03:55:19;-2.70;99.90
13589;DHT22;6865;52.552;13.434;2023-02-08T03:58:04;-2.70;99.90
13589;DHT22;6865;52.552;13.434;2023-02-08T04:00:36;-2.70;99.90
13589;DHT22;6865;52.552;13.434;2023-02-08T04:03:18;-2.70;99.90
13589;DHT22;6865;52.552;13.434;2023-02-08T04:05:45;-2.70;99.90
13589;DHT22;6865;52.552;13.434;2023-02-08T04:08:12;-2.70;99.90
13589;DHT22;6865;52.552;13.434;2023-02-08T04:10:39;-2.70;99.90
13589;DHT22;6865;52.552;13.434;2023-02-08T04:13:07;-2.70;99.90
13589;DHT22;6865;52.552;13.434;2023-02-08T04:15:33;-2.70;99.90
13589;DHT22;6865;52.552;13.434;2023-02-08T04:18:00;-2.70;99.90
13589;DHT22;6865;52.552;13.434;2023-02-08T04:20:26;-1.70;99.90
13589;DHT22;6865;52.552;13.434;2023-02-08T04:22:53;-2.80;99.90
13589;DHT22;6865;52.552;13.434;2023-02-08T04:25:20;-2.70;99.90
13589;DHT22;6865;52.552;13.434;2023-02-08T04:27:46;-2.70;99.90
13589;DHT22;6865;52.552;13.434;2023-02-08T04:30:13;-2.70;99.90
13589;DHT22;6865;52.552;13.434;2023-02-08T04:32:40;-2.70;99.90
13589;DHT22;6865;52.552;13.434;2023-02-08T04:35:06;-2.70;99.90
13589;DHT22;6865;52.552;13.434;2023-02-08T04:37:33;-2.70;99.90
13589;DHT22;6865;52.552;13.434;2023-02-08T04:40:00;-2.80;99.90
13589;DHT22;6865;52.552;13.434;2023-02-08T04:42:27;-3.00;99.90
13589;DHT22;6865;52.552;13.434;2023-02-08T04:44:54;-2.90;99.90
13589;DHT22;6865;52.552;13.434;2023-02-08T04:47:20;-2.80;99.90
13589;DHT22;6865;52.552;13.434;2023-02-08T04:49:47;-2.90;99.90
13589;DHT22;6865;52.552;13.434;2023-02-08T04:52:14;-2.90;99.90
13589;DHT22;6865;52.552;13.434;2023-02-08T04:54:40;-3.00;99.90
13589;DHT22;6865;52.552;13.434;2023-02-08T04:57:11;-3.00;99.90
13589;DHT22;6865;52.552;13.434;2023-02-08T04:59:38;-2.90;99.90
13589;DHT22;6865;52.552;13.434;2023-02-08T05:02:04;-2.90;99.90
13589;DHT22;6865;52.552;13.434;2023-02-08T05:04:31;-3.00;99.90
13589;DHT22;6865;52.552;13.434;2023-02-08T05:06:58;-3.00;99.90
13589;DHT22;6865;52.552;13.434;2023-02-08T05:09:24;-3.10;99.90
13589;DHT22;6865;52.552;13.434;2023-02-08T05:11:51;-3.00;99.90
13589;DHT22;6865;52.552;13.434;2023-02-08T05:14:18;-3.00;99.90
13589;DHT22;6865;52.552;13.434;2023-02-08T05:16:44;-3.00;99.90
13589;DHT22;6865;52.552;13.434;2023-02-08T05:19:11;-3.00;99.90
13589;DHT22;6865;52.552;13.434;2023-02-08T05:21:38;-3.00;99.90
13589;DHT22;6865;52.552;13.434;2023-02-08T05:24:04;-3.00;99.90
13589;DHT22;6865;52.552;13.434;2023-02-08T05:26:32;-3.00;99.90
13589;DHT22;6865;52.552;13.434;2023-02-08T05:28:59;-3.00;99.90
13589;DHT22;6865;52.552;13.434;2023-02-08T05:31:26;-3.00;99.90
13589;DHT22;6865;52.552;13.434;2023-02-08T05:33:52;-3.00;99.90
13589;DHT22;6865;52.552;13.434;2023-02-08T05:36:20;-3.10;99.90
13589;DHT22;6865;52.552;13.434;2023-02-08T05:38:49;-3.10;99.90
13589;DHT22;6865;52.552;13.434;2023-02-08T05:41:16;-3.10;99.90
13589;DHT22;6865;52.552;13.434;2023-02-08T05:43:43;-3.10;99.90
13589;DHT22;6865;52.552;13.434;2023-02-08T05:46:09;-3.20;99.90
13589;DHT22;6865;52.552;13.434;2023-02-08T05:48:36;-1.40;99.90
13589;DHT22;6865;52.552;13.434;2023-02-08T05:51:02;-3.10;99.90
13589;DHT22;6865;52.552;13.434;2023-02-08T05:53:30;-3.20;99.90
13589;DHT22;6865;52.552;13.434;2023-02-08T05:55:57;-3.10;99.90
13589;DHT22;6865;52.552;13.434;2023-02-08T05:58:24;-3.10;99.90
13589;DHT22;6865;52.552;13.434;2023-02-08T06:00:51;-3.20;99.90
13589;DHT22;6865;52.552;13.434;2023-02-08T06:03:19;-3.00;99.90
13589;DHT22;6865;52.552;13.434;2023-02-08T06:05:45;-3.00;99.90
13589;DHT22;6865;52.552;13.434;2023-02-08T06:08:12;-3.00;99.90
13589;DHT22;6865;52.552;13.434;2023-02-08T06:10:39;-3.00;99.90
13589;DHT22;6865;52.552;13.434;2023-02-08T06:13:06;-2.90;99.90
13589;DHT22;6865;52.552;13.434;2023-02-08T06:15:32;-2.90;99.90
13589;DHT22;6865;52.552;13.434;2023-02-08T06:17:59;-2.90;99.90
13589;DHT22;6865;52.552;13.434;2023-02-08T06:20:25;-2.80;99.90
13589;DHT22;6865;52.552;13.434;2023-02-08T06:22:53;-2.80;99.90
13589;DHT22;6865;52.552;13.434;2023-02-08T06:25:20;-2.80;99.90
13589;DHT22;6865;52.552;13.434;2023-02-08T06:27:46;-2.00;99.90
13589;DHT22;6865;52.552;13.434;2023-02-08T06:30:13;-2.80;99.90
13589;DHT22;6865;52.552;13.434;2023-02-08T06:32:40;-2.80;99.90
13589;DHT22;6865;52.552;13.434;2023-02-08T06:35:10;-2.80;99.90
13589;DHT22;6865;52.552;13.434;2023-02-08T06:37:37;-2.90;99.90
13589;DHT22;6865;52.552;13.434;2023-02-08T06:40:04;-2.80;99.90
13589;DHT22;6865;52.552;13.434;2023-02-08T06:42:31;-2.80;99.90
13589;DHT22;6865;52.552;13.434;2023-02-08T06:44:58;-2.70;99.90
13589;DHT22;6865;52.552;13.434;2023-02-08T06:47:26;-2.90;99.90
13589;DHT22;6865;52.552;13.434;2023-02-08T06:49:53;-2.70;99.90
13589;DHT22;6865;52.552;13.434;2023-02-08T06:52:20;-2.10;99.90
13589;DHT22;6865;52.552;13.434;2023-02-08T06:54:47;-2.70;99.90
13589;DHT22;6865;52.552;13.434;2023-02-08T06:57:14;-2.70;99.90
13589;DHT22;6865;52.552;13.434;2023-02-08T06:59:41;-2.90;99.90
13589;DHT22;6865;52.552;13.434;2023-02-08T07:02:18;-3.10;99.90
13589;DHT22;6865;52.552;13.434;2023-02-08T07:04:45;-2.70;99.90
13589;DHT22;6865;52.552;13.434;2023-02-08T07:07:13;-2.60;99.90
13589;DHT22;6865;52.552;13.434;2023-02-08T07:09:41;-2.80;99.90
13589;DHT22;6865;52.552;13.434;2023-02-08T07:12:08;-2.80;99.90
13589;DHT22;6865;52.552;13.434;2023-02-08T07:14:38;-2.70;99.90
13589;DHT22;6865;52.552;13.434;2023-02-08T07:17:05;-2.70;99.90
13589;DHT22;6865;52.552;13.434;2023-02-08T07:19:32;-2.60;99.90
13589;DHT22;6865;52.552;13.434;2023-02-08T07:21:59;-2.70;99.90
13589;DHT22;6865;52.552;13.434;2023-02-08T07:24:39;-2.70;99.90
13589;DHT22;6865;52.552;13.434;2023-02-08T07:27:08;-2.70;99.90
13589;DHT22;6865;52.552;13.434;2023-02-08T07:29:35;-2.60;99.90
13589;DHT22;6865;52.552;13.434;2023-02-08T07:32:03;-2.60;99.90
13589;DHT22;6865;52.552;13.434;2023-02-08T07:34:32;-2.60;99.90
13589;DHT22;6865;52.552;13.434;2023-02-08T07:37:00;-2.60;99.90
13589;DHT22;6865;52.552;13.434;2023-02-08T07:39:26;-2.60;99.90
13589;DHT22;6865;52.552;13.434;2023-02-08T07:41:53;-2.50;99.90
13589;DHT22;6865;52.552;13.434;2023-02-08T07:44:19;-2.40;99.90
13589;DHT22;6865;52.552;13.434;2023-02-08T07:46:46;-2.30;99.90
13589;DHT22;6865;52.552;13.434;2023-02-08T07:49:13;-2.30;99.90
13589;DHT22;6865;52.552;13.434;2023-02-08T07:51:39;-2.20;99.90
13589;DHT22;6865;52.552;13.434;2023-02-08T07:54:06;-2.20;99.90
13589;DHT22;6865;52.552;13.434;2023-02-08T07:56:33;-2.80;99.90
13589;DHT22;6865;52.552;13.434;2023-02-08T07:58:59;-2.20;99.90
13589;DHT22;6865;52.552;13.434;2023-02-08T08:01:26;-2.20;99.90
13589;DHT22;6865;52.552;13.434;2023-02-08T08:03:53;-2.20;99.90
13589;DHT22;6865;52.552;13.434;2023-02-08T08:06:21;-2.10;99.90
13589;DHT22;6865;52.552;13.434;2023-02-08T08:08:48;-2.00;99.90
13589;DHT22;6865;52.552;13.434;2023-02-08T08:11:16;-1.90;99.90
13589;DHT22;6865;52.552;13.434;2023-02-08T08:13:43;-1.80;99.90
13589;DHT22;6865;52.552;13.434;2023-02-08T08:16:10;-1.70;99.90
13589;DHT22;6865;52.552;13.434;2023-02-08T08:18:36;-1.70;99.90
13589;DHT22;6865;52.552;13.434;2023-02-08T08:21:03;-2.10;99.90
13589;DHT22;6865;52.552;13.434;2023-02-08T08:23:30;-1.60;99.90
13589;DHT22;6865;52.552;13.434;2023-02-08T08:25:59;-1.50;99.90
13589;DHT22;6865;52.552;13.434;2023-02-08T08:28:26;-1.50;99.90
13589;DHT22;6865;52.552;13.434;2023-02-08T08:30:53;-1.40;99.90
13589;DHT22;6865;52.552;13.434;2023-02-08T08:33:20;-1.40;99.90
13589;DHT22;6865;52.552;13.434;2023-02-08T08:35:46;-1.30;99.90
13589;DHT22;6865;52.552;13.434;2023-02-08T08:38:13;-1.30;99.90
13589;DHT22;6865;52.552;13.434;2023-02-08T08:40:40;-1.20;99.90
13589;DHT22;6865;52.552;13.434;2023-02-08T08:43:07;-1.20;99.90
13589;DHT22;6865;52.552;13.434;2023-02-08T08:45:33;-1.20;99.90
13589;DHT22;6865;52.552;13.434;2023-02-08T08:48:04;-1.10;99.90
13589;DHT22;6865;52.552;13.434;2023-02-08T08:50:31;-1.10;99.90
13589;DHT22;6865;52.552;13.434;2023-02-08T08:52:58;-0.70;99.90
13589;DHT22;6865;52.552;13.434;2023-02-08T08:55:24;-0.90;99.90
13589;DHT22;6865;52.552;13.434;2023-02-08T08:57:52;-1.30;99.90
13589;DHT22;6865;52.552;13.434;2023-02-08T09:00:19;-1.10;99.90
13589;DHT22;6865;52.552;13.434;2023-02-08T09:02:45;-1.20;99.90
13589;DHT22;6865;52.552;13.434;2023-02-08T09:05:12;-1.20;99.90
13589;DHT22;6865;52.552;13.434;2023-02-08T09:07:39;-1.10;99.90
13589;DHT22;6865;52.552;13.434;2023-02-08T09:10:06;-1.10;99.90
13589;DHT22;6865;52.552;13.434;2023-02-08T09:12:32;-0.90;99.90
13589;DHT22;6865;52.552;13.434;2023-02-08T09:14:59;-0.80;99.90
13589;DHT22;6865;52.552;13.434;2023-02-08T09:17:26;-0.70;99.90
13589;DHT22;6865;52.552;13.434;2023-02-08T09:19:52;-0.60;99.90
13589;DHT22;6865;52.552;13.434;2023-02-08T09:22:19;-0.70;99.90
13589;DHT22;6865;52.552;13.434;2023-02-08T09:24:46;-0.70;99.90
13589;DHT22;6865;52.552;13.434;2023-02-08T09:27:12;-0.70;99.90
13589;DHT22;6865;52.552;13.434;2023-02-08T09:29:40;-0.60;99.90
13589;DHT22;6865;52.552;13.434;2023-02-08T09:32:06;-0.50;99.90
13589;DHT22;6865;52.552;13.434;2023-02-08T09:34:35;-0.50;99.90
13589;DHT22;6865;52.552;13.434;2023-02-08T09:37:02;-0.40;99.90
13589;DHT22;6865;52.552;13.434;2023-02-08T09:39:29;-0.40;99.90
13589;DHT22;6865;52.552;13.434;2023-02-08T09:41:59;-0.30;99.90
13589;DHT22;6865;52.552;13.434;2023-02-08T09:45:00;-0.20;99.90
13589;DHT22;6865;52.552;13.434;2023-02-08T09:47:40;0.00;99.90
13589;DHT22;6865;52.552;13.434;2023-02-08T09:50:18;0.10;99.90
13589;DHT22;6865;52.552;13.434;2023-02-08T09:52:53;0.20;99.90
13589;DHT22;6865;52.552;13.434;2023-02-08T09:57:56;0.30;99.90
13589;DHT22;6865;52.552;13.434;2023-02-08T10:00:33;0.20;99.90
13589;DHT22;6865;52.552;13.434;2023-02-08T10:03:01;0.10;99.90
13589;DHT22;6865;52.552;13.434;2023-02-08T10:05:30;0.20;99.90
13589;DHT22;6865;52.552;13.434;2023-02-08T10:07:57;0.30;99.90
13589;DHT22;6865;52.552;13.434;2023-02-08T10:10:44;0.40;99.90
13589;DHT22;6865;52.552;13.434;2023-02-08T10:13:27;0.30;99.90
13589;DHT22;6865;52.552;13.434;2023-02-08T10:16:38;0.50;99.90
13589;DHT22;6865;52.552;13.434;2023-02-08T10:22:17;0.50;99.90
13589;DHT22;6865;52.552;13.434;2023-02-08T10:24:54;0.50;99.90
13589;DHT22;6865;52.552;13.434;2023-02-08T10:27:46;0.60;99.90
13589;DHT22;6865;52.552;13.434;2023-02-08T10:33:20;0.50;99.90
13589;DHT22;6865;52.552;13.434;2023-02-08T10:35:50;0.50;99.90
13589;DHT22;6865;52.552;13.434;2023-02-08T10:40:58;0.60;99.90
13589;DHT22;6865;52.552;13.434;2023-02-08T10:46:24;0.70;99.90
13589;DHT22;6865;52.552;13.434;2023-02-08T10:51:34;0.90;99.90
13589;DHT22;6865;52.552;13.434;2023-02-08T10:54:00;1.00;99.90
13589;DHT22;6865;52.552;13.434;2023-02-08T10:56:38;1.00;99.90
13589;DHT22;6865;52.552;13.434;2023-02-08T11:01:48;1.00;99.90
13589;DHT22;6865;52.552;13.434;2023-02-08T11:04:17;0.90;99.90
13589;DHT22;6865;52.552;13.434;2023-02-08T11:06:46;1.10;99.90
13589;DHT22;6865;52.552;13.434;2023-02-08T11:09:24;1.10;99.90
13589;DHT22;6865;52.552;13.434;2023-02-08T11:11:52;1.10;99.90
13589;DHT22;6865;52.552;13.434;2023-02-08T11:14:24;1.10;99.90
13589;DHT22;6865;52.552;13.434;2023-02-08T11:17:03;1.30;99.90
13589;DHT22;6865;52.552;13.434;2023-02-08T11:19:39;1.30;99.90
13589;DHT22;6865;52.552;13.434;2023-02-08T11:22:15;1.30;99.90
13589;DHT22;6865;52.552;13.434;2023-02-08T11:24:43;1.30;99.90
13589;DHT22;6865;52.552;13.434;2023-02-08T11:27:27;1.50;99.90
13589;DHT22;6865;52.552;13.434;2023-02-08T11:32:43;1.60;99.90
13589;DHT22;6865;52.552;13.434;2023-02-08T11:35:18;1.60;99.90
13589;DHT22;6865;52.552;13.434;2023-02-08T11:37:52;1.60;99.90
13589;DHT22;6865;52.552;13.434;2023-02-08T11:40:34;1.50;99.90
13589;DHT22;6865;52.552;13.434;2023-02-08T11:43:01;1.40;99.90
13589;DHT22;6865;52.552;13.434;2023-02-08T11:45:31;1.50;99.90
13589;DHT22;6865;52.552;13.434;2023-02-08T11:48:00;1.50;99.90
13589;DHT22;6865;52.552;13.434;2023-02-08T11:50:37;1.60;99.90
13589;DHT22;6865;52.552;13.434;2023-02-08T11:53:18;1.60;99.90
13589;DHT22;6865;52.552;13.434;2023-02-08T11:56:16;1.70;99.90
13589;DHT22;6865;52.552;13.434;2023-02-08T11:58:59;1.80;99.90
13589;DHT22;6865;52.552;13.434;2023-02-08T12:01:36;1.90;99.90
13589;DHT22;6865;52.552;13.434;2023-02-08T12:04:08;1.80;99.90
13589;DHT22;6865;52.552;13.434;2023-02-08T12:07:03;1.80;99.90
13589;DHT22;6865;52.552;13.434;2023-02-08T12:10:06;1.90;99.90
13589;DHT22;6865;52.552;13.434;2023-02-08T12:13:04;1.90;99.90
13589;DHT22;6865;52.552;13.434;2023-02-08T12:19:03;1.80;99.90
13589;DHT22;6865;52.552;13.434;2023-02-08T12:21:41;1.90;99.90
13589;DHT22;6865;52.552;13.434;2023-02-08T12:24:46;2.00;99.90
13589;DHT22;6865;52.552;13.434;2023-02-08T12:30:13;2.10;99.90
13589;DHT22;6865;52.552;13.434;2023-02-08T12:36:14;1.10;99.90
13589;DHT22;6865;52.552;13.434;2023-02-08T12:38:58;2.10;99.90
13589;DHT22;6865;52.552;13.434;2023-02-08T12:42:16;2.20;99.90
13589;DHT22;6865;52.552;13.434;2023-02-08T12:50:50;2.50;99.90
13589;DHT22;6865;52.552;13.434;2023-02-08T12:53:40;2.50;99.90
13589;DHT22;6865;52.552;13.434;2023-02-08T12:56:14;2.60;99.90
13589;DHT22;6865;52.552;13.434;2023-02-08T12:58:56;2.60;99.90
13589;DHT22;6865;52.552;13.434;2023-02-08T13:01:42;2.40;99.90
13589;DHT22;6865;52.552;13.434;2023-02-08T13:04:14;2.70;99.90
13589;DHT22;6865;52.552;13.434;2023-02-08T13:06:44;2.70;99.90
13589;DHT22;6865;52.552;13.434;2023-02-08T13:12:05;3.00;99.90
13589;DHT22;6865;52.552;13.434;2023-02-08T13:14:37;2.70;99.90
13589;DHT22;6865;52.552;13.434;2023-02-08T13:17:26;2.60;99.90
13589;DHT22;6865;52.552;13.434;2023-02-08T13:19:59;2.70;99.90
13589;DHT22;6865;52.552;13.434;2023-02-08T13:22:34;2.70;99.90
13589;DHT22;6865;52.552;13.434;2023-02-08T13:25:05;2.70;99.90
13589;DHT22;6865;52.552;13.434;2023-02-08T13:27:34;2.70;99.90
13589;DHT22;6865;52.552;13.434;2023-02-08T13:30:01;2.70;99.90
13589;DHT22;6865;52.552;13.434;2023-02-08T13:32:39;2.60;99.90
13589;DHT22;6865;52.552;13.434;2023-02-08T13:35:16;2.70;99.90
13589;DHT22;6865;52.552;13.434;2023-02-08T13:38:00;2.80;99.90
13589;DHT22;6865;52.552;13.434;2023-02-08T13:40:37;2.40;99.90
13589;DHT22;6865;52.552;13.434;2023-02-08T13:43:14;2.50;99.90
13589;DHT22;6865;52.552;13.434;2023-02-08T13:46:00;2.80;99.90
13589;DHT22;6865;52.552;13.434;2023-02-08T13:48:44;2.70;99.90
13589;DHT22;6865;52.552;13.434;2023-02-08T13:51:50;2.60;99.90
13589;DHT22;6865;52.552;13.434;2023-02-08T13:54:17;2.70;99.90
13589;DHT22;6865;52.552;13.434;2023-02-08T13:56:49;2.70;99.90
13589;DHT22;6865;52.552;13.434;2023-02-08T13:59:37;2.80;99.90
13589;DHT22;6865;52.552;13.434;2023-02-08T14:04:46;2.70;99.90
13589;DHT22;6865;52.552;13.434;2023-02-08T14:07:25;2.80;99.90
13589;DHT22;6865;52.552;13.434;2023-02-08T14:17:43;2.70;99.90
13589;DHT22;6865;52.552;13.434;2023-02-08T14:22:52;2.60;99.90
13589;DHT22;6865;52.552;13.434;2023-02-08T14:25:22;2.50;99.90
13589;DHT22;6865;52.552;13.434;2023-02-08T14:27:55;2.50;99.90
13589;DHT22;6865;52.552;13.434;2023-02-08T14:30:29;2.50;99.90
13589;DHT22;6865;52.552;13.434;2023-02-08T14:35:31;2.60;99.90
13589;DHT22;6865;52.552;13.434;2023-02-08T14:40:51;2.60;99.90
13589;DHT22;6865;52.552;13.434;2023-02-08T14:45:46;2.60;99.90
13589;DHT22;6865;52.552;13.434;2023-02-08T14:48:30;2.50;99.90
13589;DHT22;6865;52.552;13.434;2023-02-08T14:56:28;2.40;99.90
13589;DHT22;6865;52.552;13.434;2023-02-08T14:59:00;2.40;99.90
13589;DHT22;6865;52.552;13.434;2023-02-08T15:01:40;2.20;99.90
13589;DHT22;6865;52.552;13.434;2023-02-08T15:04:11;2.10;99.90
13589;DHT22;6865;52.552;13.434;2023-02-08T15:06:53;2.10;99.90
13589;DHT22;6865;52.552;13.434;2023-02-08T15:09:32;2.10;99.90
13589;DHT22;6865;52.552;13.434;2023-02-08T15:12:07;2.10;99.90
13589;DHT22;6865;52.552;13.434;2023-02-08T15:14:40;2.10;99.90
13589;DHT22;6865;52.552;13.434;2023-02-08T15:17:25;2.00;99.90
13589;DHT22;6865;52.552;13.434;2023-02-08T15:19:55;1.90;99.90
13589;DHT22;6865;52.552;13.434;2023-02-08T15:24:54;2.60;99.90
13589;DHT22;6865;52.552;13.434;2023-02-08T15:27:33;1.90;99.90
13589;DHT22;6865;52.552;13.434;2023-02-08T15:30:00;1.90;99.90
13589;DHT22;6865;52.552;13.434;2023-02-08T15:32:28;1.90;99.90
13589;DHT22;6865;52.552;13.434;2023-02-08T15:34:58;1.90;99.90
13589;DHT22;6865;52.552;13.434;2023-02-08T15:37:29;1.80;99.90
13589;DHT22;6865;52.552;13.434;2023-02-08T15:39:58;1.70;99.90
13589;DHT22;6865;52.552;13.434;2023-02-08T15:42:30;1.60;99.90
13589;DHT22;6865;52.552;13.434;2023-02-08T15:44:58;1.60;99.90
13589;DHT22;6865;52.552;13.434;2023-02-08T15:47:35;1.60;99.90
13589;DHT22;6865;52.552;13.434;2023-02-08T15:50:06;1.60;99.90
13589;DHT22;6865;52.552;13.434;2023-02-08T15:52:35;1.60;99.90
13589;DHT22;6865;52.552;13.434;2023-02-08T15:55:05;1.60;99.90
13589;DHT22;6865;52.552;13.434;2023-02-08T16:00:25;1.40;99.90
13589;DHT22;6865;52.552;13.434;2023-02-08T16:03:03;1.30;99.90
13589;DHT22;6865;52.552;13.434;2023-02-08T16:05:34;1.30;99.90
13589;DHT22;6865;52.552;13.434;2023-02-08T16:08:02;1.30;99.90
13589;DHT22;6865;52.552;13.434;2023-02-08T16:10:47;1.20;99.90
13589;DHT22;6865;52.552;13.434;2023-02-08T16:13:45;1.20;99.90
13589;DHT22;6865;52.552;13.434;2023-02-08T16:16:57;1.10;99.90
13589;DHT22;6865;52.552;13.434;2023-02-08T16:19:31;1.10;99.90
13589;DHT22;6865;52.552;13.434;2023-02-08T16:24:46;0.90;99.90
13589;DHT22;6865;52.552;13.434;2023-02-08T16:27:30;0.90;99.90
13589;DHT22;6865;52.552;13.434;2023-02-08T16:29:59;0.90;99.90
13589;DHT22;6865;52.552;13.434;2023-02-08T16:32:31;0.80;99.90
13589;DHT22;6865;52.552;13.434;2023-02-08T16:34:59;0.90;99.90
13589;DHT22;6865;52.552;13.434;2023-02-08T16:37:36;0.80;99.90
13589;DHT22;6865;52.552;13.434;2023-02-08T16:40:10;0.70;99.90
13589;DHT22;6865;52.552;13.434;2023-02-08T16:43:16;0.60;99.90
13589;DHT22;6865;52.552;13.434;2023-02-08T16:45:43;0.50;99.90
13589;DHT22;6865;52.552;13.434;2023-02-08T16:48:29;0.50;99.90
13589;DHT22;6865;52.552;13.434;2023-02-08T16:50:59;0.50;99.90
13589;DHT22;6865;52.552;13.434;2023-02-08T16:53:27;0.50;99.90
13589;DHT22;6865;52.552;13.434;2023-02-08T16:56:08;0.50;99.90
13589;DHT22;6865;52.552;13.434;2023-02-08T16:58:36;0.60;99.90
13589;DHT22;6865;52.552;13.434;2023-02-08T17:01:03;0.60;99.90
13589;DHT22;6865;52.552;13.434;2023-02-08T17:03:30;0.60;99.90
13589;DHT22;6865;52.552;13.434;2023-02-08T17:05:59;0.50;99.90
13589;DHT22;6865;52.552;13.434;2023-02-08T17:08:26;0.50;99.90
13589;DHT22;6865;52.552;13.434;2023-02-08T17:10:53;-0.20;99.90
13589;DHT22;6865;52.552;13.434;2023-02-08T17:13:25;0.50;99.90
13589;DHT22;6865;52.552;13.434;2023-02-08T17:15:57;0.40;99.90
13589;DHT22;6865;52.552;13.434;2023-02-08T17:18:25;0.40;99.90
13589;DHT22;6865;52.552;13.434;2023-02-08T17:20:52;0.30;99.90
13589;DHT22;6865;52.552;13.434;2023-02-08T17:23:25;0.40;99.90
13589;DHT22;6865;52.552;13.434;2023-02-08T17:25:52;0.30;99.90
13589;DHT22;6865;52.552;13.434;2023-02-08T17:28:21;0.30;99.90
13589;DHT22;6865;52.552;13.434;2023-02-08T17:30:48;0.30;99.90
13589;DHT22;6865;52.552;13.434;2023-02-08T17:33:15;0.40;99.90
13589;DHT22;6865;52.552;13.434;2023-02-08T17:35:47;0.30;99.90
13589;DHT22;6865;52.552;13.434;2023-02-08T17:38:15;0.80;99.90
13589;DHT22;6865;52.552;13.434;2023-02-08T17:40:43;0.30;99.90
13589;DHT22;6865;52.552;13.434;2023-02-08T17:43:11;0.30;99.90
13589;DHT22;6865;52.552;13.434;2023-02-08T17:45:39;0.30;99.90
13589;DHT22;6865;52.552;13.434;2023-02-08T17:48:07;0.20;99.90
13589;DHT22;6865;52.552;13.434;2023-02-08T17:50:34;0.20;99.90
13589;DHT22;6865;52.552;13.434;2023-02-08T17:53:01;0.20;99.90